Meteo Giornale » Osservazioni meteo Australia » Coffs Harbour
ore: 01:25 - Osservazioni Meteo Coffs Harbour
Lat. 30° 19' S Lon. 153° 7' E Alt. 5 metri s.l.m.
11 °C
Nebbia
Temp. 24 Ore
9 °C
21 °C
Nord-Ovest
7.4 Km/h
Dew point 11 °C
Umidità 100 %
Visibilità 0.9 Km
Il sole sorge alle ore 06:03
Il sole tramonta alle ore 17:32
| Data e Ora | Cielo e Fenomeni | T °C | DP °C | Um. % | Pres. hPa | Vis. km | Vento km/h | |
|---|---|---|---|---|---|---|---|---|
| Oggi h: 01:25 | Nebbia | 11 | 11 | 100 | 1029 | 0.9 | NO 7.4 | |
| Oggi h: 01:00 | Foschia | 11 | 11 | 100 | 1030 | 1 | N 5.5 | |
| Oggi h: 00:34 | Foschia | 11 | 11 | 100 | 1030 | 1 | N 5.5 | |
| Oggi h: 00:30 | Nebbia | 11 | 11 | 100 | 1030 | 0.6 | N 5.5 | |
| Oggi h: 00:22 | Nebbia | 11 | 11 | 100 | 1030 | 0.9 | N 5.5 | |
| Oggi h: 00:09 | Foschia | 11 | 11 | 100 | 1030 | 1 | NO 7.4 | |
| Oggi h: 00:08 | Nebbia | 11 | 11 | 100 | 1030 | 0.9 | NO 7.4 | |
| Oggi h: 00:00 | Foschia | 11 | 11 | 100 | 1030 | 1 | N 5.5 | |
| Ieri h: 23:58 | Foschia | 11 | 11 | 100 | 1030 | 1 | N 5.5 | |
| Ieri h: 23:45 | Nebbia | 11 | 11 | 100 | 1030 | 0.9 | O/NO 7.4 | |
| Ieri h: 23:30 | Foschia | 11 | 11 | 100 | 1030 | 2 | N 5.5 | |
| Ieri h: 23:21 | Foschia | 11 | 11 | 100 | 1030 | 1 | N 5.5 | |
| Ieri h: 23:12 | Nebbia | 11 | 11 | 100 | 1030 | 0.8 | O/NO 7.4 | |
| Ieri h: 23:05 | Sereno | 12 | 11 | 93 | 1030 | 6 | O/NO 7.4 | |
| Ieri h: 23:00 | Sereno | 12 | 11 | 93 | 1030 | 9 | N 5.5 | |
| Ieri h: 22:30 | Sereno | 13 | 13 | 100 | 1030 | 8 | NO 7.4 | |
| Ieri h: 22:00 | Poco Nuvoloso | 12 | 12 | 100 | 1030 | 10 | N 3.7 | |
| Ieri h: 21:53 | Poco Nuvoloso | 13 | 12 | 93 | 1031 | 8 | N 5.5 | |
| Ieri h: 21:43 | Nuvoloso | 13 | 12 | 93 | 1031 | 6 | N 5.5 | |
| Ieri h: 21:40 | Nuvoloso | 13 | 12 | 93 | 1031 | 7 | N 5.5 | |
| Ieri h: 21:30 | Foschia | 13 | 13 | 100 | 1031 | 2 | N 5.5 | |
| Ieri h: 21:21 | Foschia | 12 | 12 | 100 | 1031 | 3 | N 5.5 | |
| Ieri h: 21:00 | Poco Nuvoloso | 13 | 13 | 100 | 1031 | 10 | NO 7.4 | |
| Ieri h: 20:30 | Molto Nuvoloso | 13 | 13 | 100 | 1031 | 10 | NO 7.4 | |
| Ieri h: 20:00 | Nuvoloso | 13 | 12 | 93 | 1030 | 10 | N 5.5 | |
| Ieri h: 19:30 | Nuvoloso | 14 | 13 | 93 | 1030 | 10 | O/NO 7.4 | |
| Ieri h: 19:00 | Nuvoloso | 14 | 13 | 93 | 1030 | 10 | O 7.4 | |
| Ieri h: 18:30 | Nuvoloso | 15 | 14 | 93 | 1030 | 10 | O/NO 9.3 | |
| Ieri h: 18:00 | Sereno | 16 | 14 | 87 | 1030 | 10 | E/SE 9.3 | |
| Ieri h: 17:30 | Sereno | 18 | 13 | 72 | 1029 | 10 | E/SE 7.4 | |
| Ieri h: 17:00 | Sereno | 19 | 13 | 68 | 1029 | 10 | E/SE 7.4 | |
| Ieri h: 16:30 | Sereno | 20 | 13 | 64 | 1029 | 10 | E/SE 9.3 | |
| Ieri h: 16:00 | Sereno | 20 | 14 | 68 | 1029 | 10 | SE 13 | |
| Ieri h: 15:30 | Sereno | 21 | 14 | 64 | 1029 | 10 | E/SE 13 | |
| Ieri h: 15:00 | Sereno | 21 | 14 | 64 | 1029 | 10 | SE 16.7 | |
| Ieri h: 14:30 | Sereno | 21 | 14 | 64 | 1029 | 10 | S/SE 16.7 | |
| Ieri h: 14:00 | Sereno | 21 | 14 | 64 | 1029 | 10 | S/SE 18.5 | |
| Ieri h: 13:30 | Sereno | 21 | 14 | 64 | 1029 | 10 | SE 18.5 | |
| Ieri h: 13:00 | Sereno | 21 | 14 | 64 | 1029 | 10 | S/SE 18.5 | |
| Ieri h: 12:30 | Sereno | 21 | 13 | 60 | 1030 | 10 | S 18.5 | |
| Ieri h: 12:00 | Sereno | 21 | 13 | 60 | 1030 | 10 | S/SE 18.5 | |
| Ieri h: 11:30 | Sereno | 21 | 13 | 60 | 1030 | 10 | S/SE 16.7 | |
| Ieri h: 11:00 | Sereno | 21 | 12 | 56 | 1030 | 10 | S 16.7 | |
| Ieri h: 10:30 | Sereno | 21 | 12 | 56 | 1031 | 10 | S/SE 14.8 | |
| Ieri h: 10:00 | Sereno | 21 | 12 | 56 | 1031 | 10 | S/SO 14.8 | |
| Ieri h: 09:30 | Sereno | 20 | 12 | 59 | 1031 | 10 | SO 13 | |
| Ieri h: 09:00 | Sereno | 18 | 12 | 67 | 1031 | 10 | SO 13 | |
| Ieri h: 08:30 | Sereno | 17 | 12 | 72 | 1031 | 10 | SO 14.8 | |
| Ieri h: 08:00 | Sereno | 14 | 12 | 87 | 1031 | 10 | O/SO 11.1 | |
| Ieri h: 07:30 | Sereno | 13 | 13 | 100 | 1030 | 10 | N 5.5 | |
| Ieri h: 07:00 | Sereno | 11 | 11 | 100 | 1030 | 10 | O/NO 7.4 | |
| Ieri h: 06:43 | Sereno | 10 | 10 | 100 | 1030 | 10 | O/NO 7.4 | |
| Ieri h: 06:30 | Foschia | 9 | 9 | 100 | 1030 | 1 | O/NO 7.4 | |
| Ieri h: 06:00 | Foschia | 9 | 9 | 100 | 1030 | 4 | O 7.4 | |
| Ieri h: 05:48 | Foschia | 9 | 9 | 100 | 1029 | 1 | N 5.5 | |
| Ieri h: 05:44 | Nebbia | 9 | 9 | 100 | 1029 | 0.9 | N 5.5 | |
| Ieri h: 05:30 | Foschia | 9 | 9 | 100 | 1029 | 5 | N 5.5 | |
| Ieri h: 05:00 | Foschia | 9 | 9 | 100 | 1029 | 4 | O 7.4 | |
| Ieri h: 04:41 | Foschia | 9 | 9 | 100 | 1029 | 1 | NO 7.4 | |
| Ieri h: 04:30 | Nebbia | 9 | 9 | 100 | 1029 | 0.6 | NO 7.4 | |
| Ieri h: 04:29 | Nebbia | 9 | 9 | 100 | 1029 | 0.7 | NO 7.4 | |
| Ieri h: 04:22 | Foschia | 10 | 10 | 100 | 1029 | 5 | NO 7.4 | |
| Ieri h: 04:20 | Sereno | 10 | 10 | 100 | 1029 | 9 | NO 7.4 | |
| Ieri h: 04:04 | Foschia | 9 | 9 | 100 | 1029 | 1 | N 5.5 | |
| Ieri h: 04:00 | Nebbia | 9 | 9 | 100 | 1029 | 0.7 | N 5.5 | |
| Ieri h: 03:39 | Nebbia | 9 | 9 | 100 | 1029 | 0.9 | N 5.5 | |
| Ieri h: 03:30 | Foschia | 10 | 10 | 100 | 1029 | 3 | N 5.5 | |
| Ieri h: 03:24 | Foschia | 10 | 10 | 100 | 1029 | 1 | N 1.8 | |
| Ieri h: 03:20 | Nebbia | 10 | 10 | 100 | 1029 | 0.8 | N 0 | |
| Ieri h: 03:10 | Foschia | 9 | 9 | 100 | 1029 | 1 | N 3.7 | |
| Ieri h: 03:00 | Nebbia | 9 | 9 | 100 | 1029 | 0.8 | N 5.5 | |
| Ieri h: 02:59 | Nebbia | 9 | 9 | 100 | 1029 | 0.9 | N 5.5 | |
| Ieri h: 02:43 | Foschia | 9 | 9 | 100 | 1029 | 1 | N 3.7 | |
| Ieri h: 02:30 | Nebbia | 9 | 9 | 100 | 1029 | 0.5 | N 3.7 | |
| Ieri h: 02:25 | Nebbia | 9 | 9 | 100 | 1029 | 0.9 | N 0 | |
| Ieri h: 02:21 | Foschia | 9 | 9 | 100 | 1029 | 1 | N 1.8 | |
| Ieri h: 02:06 | Nebbia | 10 | 10 | 100 | 1029 | 0.9 | O/NO 7.4 | |
| Ieri h: 02:00 | Foschia | 10 | 10 | 100 | 1029 | 3 | O/NO 7.4 | |
| Ieri h: 01:52 | Foschia | 9 | 9 | 100 | 1029 | 1 | NO 7.4 | |
| Ieri h: 01:41 | Nebbia | 10 | 10 | 100 | 1029 | 0.9 | NO 7.4 | |



